createdAt,value
2023-03-29T00:00:41.102Z,3.83
2023-03-29T00:03:09.197Z,3.90
2023-03-29T00:05:38.964Z,3.87
2023-03-29T00:08:06.395Z,3.76
2023-03-29T00:10:33.879Z,3.94
2023-03-29T00:13:01.857Z,3.70
2023-03-29T00:15:29.127Z,3.18
2023-03-29T00:17:57.392Z,2.67
2023-03-29T00:20:24.645Z,2.12
2023-03-29T00:22:51.970Z,2.00
2023-03-29T00:25:19.202Z,1.93
2023-03-29T00:27:47.099Z,1.84
2023-03-29T00:30:15.072Z,1.70
2023-03-29T00:32:42.944Z,2.00
2023-03-29T00:35:11.076Z,2.04
2023-03-29T00:37:38.362Z,1.87
2023-03-29T00:40:12.692Z,1.70
2023-03-29T00:42:40.069Z,1.67
2023-03-29T00:45:13.198Z,1.77
2023-03-29T00:47:48.587Z,1.66
2023-03-29T00:50:22.463Z,1.59
2023-03-29T00:52:53.694Z,1.73
2023-03-29T00:55:22.931Z,1.87
2023-03-29T00:57:52.165Z,1.85
2023-03-29T01:00:20.985Z,1.85
2023-03-29T01:02:54.221Z,1.90
2023-03-29T01:05:30.971Z,1.80
2023-03-29T01:08:02.130Z,1.74
2023-03-29T01:10:50.047Z,1.84
2023-03-29T01:13:20.913Z,1.91
2023-03-29T01:15:48.319Z,1.64
2023-03-29T01:18:17.097Z,1.57
2023-03-29T01:21:28.233Z,1.60
2023-03-29T01:23:58.378Z,1.47
2023-03-29T01:26:47.134Z,1.49
2023-03-29T01:29:20.122Z,1.59
2023-03-29T01:31:59.751Z,1.73
2023-03-29T01:34:38.681Z,1.73
2023-03-29T01:37:13.529Z,1.95
2023-03-29T01:39:40.903Z,2.25
2023-03-29T01:42:25.920Z,2.32
2023-03-29T01:45:17.810Z,2.12
2023-03-29T01:48:07.106Z,2.02
2023-03-29T01:50:54.461Z,1.85
2023-03-29T01:54:00.176Z,1.66
2023-03-29T01:56:29.793Z,1.67
2023-03-29T01:59:06.101Z,1.67
2023-03-29T02:01:38.466Z,1.77
2023-03-29T02:04:09.309Z,1.80
2023-03-29T02:06:37.591Z,1.98
2023-03-29T02:09:05.074Z,1.97
2023-03-29T02:11:32.528Z,1.97
2023-03-29T02:14:02.179Z,1.85
2023-03-29T02:16:37.065Z,1.90
2023-03-29T02:19:04.484Z,1.88
2023-03-29T02:21:37.341Z,2.04
2023-03-29T02:24:06.517Z,1.66
2023-03-29T02:26:34.172Z,1.43
2023-03-29T02:29:01.696Z,1.38
2023-03-29T02:32:08.951Z,1.29
2023-03-29T02:34:41.855Z,1.39
2023-03-29T02:37:11.823Z,1.42
2023-03-29T02:39:39.228Z,1.06
2023-03-29T02:42:06.605Z,0.84
2023-03-29T02:44:36.730Z,0.64
2023-03-29T02:47:07.936Z,0.68
2023-03-29T02:49:35.482Z,0.67
2023-03-29T02:52:07.466Z,0.58
2023-03-29T02:54:34.929Z,0.54
2023-03-29T02:57:06.345Z,0.58
2023-03-29T02:59:34.003Z,0.49
2023-03-29T03:02:01.392Z,0.46
2023-03-29T03:04:29.723Z,0.43
2023-03-29T03:06:57.259Z,0.39
2023-03-29T03:09:24.693Z,0.37
2023-03-29T03:11:53.266Z,0.36
2023-03-29T03:14:22.911Z,0.46
2023-03-29T03:16:50.656Z,0.50
2023-03-29T03:19:18.030Z,0.57
2023-03-29T03:21:47.132Z,0.72
2023-03-29T03:24:15.668Z,0.80
2023-03-29T03:26:43.274Z,0.68
2023-03-29T03:29:11.535Z,0.85
2023-03-29T03:31:57.288Z,0.93
2023-03-29T03:35:02.148Z,1.03
2023-03-29T03:37:29.466Z,1.12
2023-03-29T03:39:56.793Z,1.35
2023-03-29T03:42:29.742Z,1.38
2023-03-29T03:44:58.268Z,1.26
2023-03-29T03:47:44.310Z,1.19
2023-03-29T03:50:28.182Z,1.02
2023-03-29T03:52:55.625Z,0.98
2023-03-29T03:55:22.927Z,0.99
2023-03-29T03:58:12.396Z,1.25
2023-03-29T04:00:39.721Z,1.05
2023-03-29T04:03:22.807Z,0.89
2023-03-29T04:05:50.594Z,0.82
2023-03-29T04:08:19.841Z,1.08
2023-03-29T04:11:07.739Z,0.98
2023-03-29T04:13:38.030Z,1.05
2023-03-29T04:16:28.620Z,1.01
2023-03-29T04:19:01.551Z,0.96
2023-03-29T04:21:29.323Z,0.91
2023-03-29T04:23:56.558Z,0.96
2023-03-29T04:26:24.104Z,0.74
2023-03-29T04:28:57.536Z,0.71
2023-03-29T04:31:45.319Z,0.84
2023-03-29T04:34:15.521Z,0.89
2023-03-29T04:36:44.185Z,0.91
2023-03-29T04:39:18.477Z,0.98
2023-03-29T04:41:48.587Z,0.81
2023-03-29T04:44:21.473Z,0.87
2023-03-29T04:46:49.045Z,0.72
2023-03-29T04:49:37.714Z,0.68
2023-03-29T04:52:09.854Z,0.53
2023-03-29T04:54:37.966Z,0.46
2023-03-29T04:57:13.722Z,0.47
2023-03-29T04:59:45.764Z,0.64
2023-03-29T05:02:33.568Z,0.65
2023-03-29T05:05:00.934Z,0.54
2023-03-29T05:07:28.726Z,0.49
2023-03-29T05:09:56.173Z,0.61
2023-03-29T05:12:23.666Z,0.68
2023-03-29T05:14:53.744Z,0.64
2023-03-29T05:17:26.970Z,0.62
2023-03-29T05:19:57.032Z,0.80
2023-03-29T05:22:26.060Z,0.71
2023-03-29T05:24:54.206Z,0.85
2023-03-29T05:27:23.115Z,0.77
2023-03-29T05:30:03.628Z,0.77
2023-03-29T05:33:02.187Z,0.89
2023-03-29T05:35:30.892Z,0.77
2023-03-29T05:38:00.786Z,0.84
2023-03-29T05:40:31.525Z,0.84
2023-03-29T05:43:31.739Z,1.06
2023-03-29T05:45:59.621Z,1.40
2023-03-29T05:48:29.519Z,1.60
2023-03-29T05:50:58.090Z,1.63
2023-03-29T05:53:27.554Z,1.50
2023-03-29T05:55:55.320Z,1.54
2023-03-29T05:58:26.962Z,1.56
2023-03-29T06:00:54.395Z,1.57
2023-03-29T06:03:43.451Z,1.68
2023-03-29T06:06:11.234Z,1.73
2023-03-29T06:08:39.151Z,1.87
2023-03-29T06:11:18.285Z,1.85
2023-03-29T06:14:13.404Z,2.05
2023-03-29T06:16:47.396Z,1.98
2023-03-29T06:19:16.098Z,1.98
2023-03-29T06:21:43.801Z,2.04
2023-03-29T06:24:15.936Z,2.11
2023-03-29T06:26:48.961Z,2.28
2023-03-29T06:29:17.225Z,2.39
2023-03-29T06:31:46.982Z,2.70
2023-03-29T06:34:33.436Z,2.83
2023-03-29T06:37:21.650Z,2.97
2023-03-29T06:39:55.783Z,3.36
2023-03-29T06:42:32.503Z,3.60
2023-03-29T06:45:23.801Z,3.80
2023-03-29T06:47:52.214Z,3.76
2023-03-29T06:50:20.242Z,3.83
2023-03-29T06:53:14.074Z,4.10
2023-03-29T06:55:43.039Z,4.58
2023-03-29T06:58:48.791Z,4.87
2023-03-29T07:01:43.310Z,4.93
2023-03-29T07:04:32.454Z,5.01
2023-03-29T07:07:44.184Z,5.30
2023-03-29T07:10:26.261Z,5.24
2023-03-29T07:13:17.623Z,5.95
2023-03-29T07:15:46.419Z,5.79
2023-03-29T07:18:22.722Z,6.07
2023-03-29T07:20:50.681Z,6.70
2023-03-29T07:23:18.823Z,6.40
2023-03-29T07:25:47.773Z,6.38
2023-03-29T07:28:15.264Z,6.51
2023-03-29T07:30:43.135Z,6.15
2023-03-29T07:33:19.491Z,5.99
2023-03-29T07:35:53.459Z,5.86
2023-03-29T07:38:21.206Z,5.89
2023-03-29T07:40:54.913Z,5.88
2023-03-29T07:43:41.937Z,6.23
2023-03-29T07:46:11.435Z,6.33
2023-03-29T07:48:39.799Z,6.26
2023-03-29T07:51:09.844Z,6.33
2023-03-29T07:53:44.841Z,6.05
2023-03-29T07:56:27.397Z,6.15
2023-03-29T07:59:17.163Z,6.09
2023-03-29T08:01:51.589Z,6.07
2023-03-29T08:12:24.970Z,6.20
2023-03-29T08:14:53.578Z,6.24
2023-03-29T08:17:26.990Z,6.43
2023-03-29T08:19:54.436Z,6.50
2023-03-29T08:22:24.006Z,6.43
2023-03-29T08:25:09.234Z,6.63
2023-03-29T08:27:43.431Z,6.58
2023-03-29T08:30:15.910Z,6.65
2023-03-29T08:33:06.788Z,6.64
2023-03-29T08:35:38.460Z,6.58
2023-03-29T08:38:15.025Z,6.51
2023-03-29T08:40:42.732Z,6.74
2023-03-29T08:43:19.480Z,6.61
2023-03-29T08:46:22.155Z,6.80
2023-03-29T08:49:03.821Z,6.99
2023-03-29T08:51:37.341Z,7.32
2023-03-29T08:54:10.741Z,7.43
2023-03-29T08:57:03.272Z,7.29
2023-03-29T08:59:38.997Z,7.32
2023-03-29T09:02:16.179Z,7.62
2023-03-29T09:04:43.861Z,7.57
2023-03-29T09:07:28.238Z,7.36
2023-03-29T09:09:57.422Z,7.47
2023-03-29T09:13:01.378Z,7.60
2023-03-29T09:15:33.178Z,7.63
2023-03-29T09:18:31.260Z,7.54
2023-03-29T09:21:31.576Z,7.60
2023-03-29T09:24:09.130Z,7.52
2023-03-29T09:26:55.538Z,7.46
2023-03-29T09:29:51.535Z,7.59
2023-03-29T09:32:33.026Z,7.62
2023-03-29T09:35:23.118Z,7.81
2023-03-29T09:37:55.134Z,7.98
2023-03-29T09:40:24.188Z,7.77
2023-03-29T09:43:04.494Z,7.90
2023-03-29T09:45:31.974Z,7.95
2023-03-29T09:48:03.605Z,8.05
2023-03-29T09:50:38.609Z,8.04
2023-03-29T09:53:09.146Z,8.33
2023-03-29T09:55:41.056Z,8.39
2023-03-29T09:58:31.128Z,8.29
2023-03-29T10:01:06.934Z,8.31
2023-03-29T10:03:35.263Z,8.31
2023-03-29T10:06:11.404Z,8.20
2023-03-29T10:08:58.002Z,8.28
2023-03-29T10:11:48.006Z,7.99
2023-03-29T10:14:21.608Z,8.29
2023-03-29T10:16:55.738Z,8.53
2023-03-29T10:19:27.171Z,8.57
2023-03-29T10:21:55.158Z,8.60
2023-03-29T10:24:23.518Z,8.84
2023-03-29T10:26:55.911Z,8.81
2023-03-29T10:29:24.415Z,8.63
2023-03-29T10:31:52.904Z,8.84
2023-03-29T10:34:20.451Z,8.87
2023-03-29T10:37:09.227Z,8.90
2023-03-29T10:39:36.771Z,8.83
2023-03-29T10:42:04.345Z,8.76
2023-03-29T10:44:33.488Z,8.63
2023-03-29T10:47:17.391Z,8.77
2023-03-29T10:49:47.750Z,8.93
2023-03-29T10:52:16.428Z,9.00
2023-03-29T10:54:44.485Z,9.08
2023-03-29T10:57:51.574Z,9.05
2023-03-29T11:00:23.541Z,9.30
2023-03-29T11:03:06.920Z,9.43
2023-03-29T11:05:57.585Z,9.45
2023-03-29T11:08:49.216Z,9.55
2023-03-29T11:11:48.424Z,9.69
2023-03-29T11:14:22.205Z,9.66
2023-03-29T11:17:16.569Z,9.89
2023-03-29T11:19:43.891Z,10.31
2023-03-29T11:22:34.244Z,10.47
2023-03-29T11:25:32.859Z,10.48
2023-03-29T11:28:13.509Z,10.42
2023-03-29T11:30:52.408Z,10.17
2023-03-29T11:33:42.231Z,10.52
2023-03-29T11:36:25.246Z,10.91
2023-03-29T11:39:05.099Z,10.57
2023-03-29T11:41:34.798Z,10.52
2023-03-29T11:44:09.847Z,10.69
2023-03-29T11:46:47.019Z,10.79
2023-03-29T11:49:25.455Z,10.71
2023-03-29T11:52:20.295Z,10.42
2023-03-29T11:55:04.173Z,10.51
2023-03-29T11:57:54.612Z,10.41
2023-03-29T12:00:30.376Z,10.42
2023-03-29T12:03:17.085Z,10.34
2023-03-29T12:05:47.138Z,10.58
2023-03-29T12:08:17.324Z,10.49
2023-03-29T12:10:56.867Z,10.42
2023-03-29T12:13:35.374Z,10.37
2023-03-29T12:16:40.363Z,10.34
2023-03-29T12:19:54.234Z,10.40
2023-03-29T12:22:22.564Z,10.49
2023-03-29T12:25:11.446Z,10.36
2023-03-29T12:27:48.697Z,10.20
2023-03-29T12:30:24.094Z,10.34
2023-03-29T12:33:09.793Z,10.16
2023-03-29T12:36:10.844Z,10.07
2023-03-29T12:39:04.276Z,9.97
2023-03-29T12:42:23.162Z,9.82
2023-03-29T12:45:34.641Z,10.00
2023-03-29T12:48:02.100Z,9.89
2023-03-29T12:50:33.400Z,9.82
2023-03-29T12:53:24.488Z,9.99
2023-03-29T12:56:01.181Z,9.83
2023-03-29T12:59:16.906Z,9.83
2023-03-29T13:02:00.203Z,9.78
2023-03-29T13:04:39.138Z,9.66
2023-03-29T13:07:11.786Z,9.68
2023-03-29T13:09:55.259Z,9.55
2023-03-29T13:12:33.591Z,9.72
2023-03-29T13:15:08.166Z,9.73
2023-03-29T13:17:48.114Z,9.83
2023-03-29T13:20:43.246Z,9.65
2023-03-29T13:23:39.752Z,9.62
2023-03-29T13:26:28.609Z,9.56
2023-03-29T13:29:23.466Z,9.56
2023-03-29T13:31:56.920Z,9.68
2023-03-29T13:34:46.692Z,9.65
2023-03-29T13:37:23.070Z,9.63
2023-03-29T13:39:54.424Z,9.75
2023-03-29T13:42:34.776Z,9.79
2023-03-29T13:45:22.715Z,9.63
2023-03-29T13:48:02.627Z,9.69
2023-03-29T13:50:37.744Z,9.55
2023-03-29T13:53:13.908Z,9.63
2023-03-29T13:55:46.594Z,9.51
2023-03-29T13:58:21.072Z,9.68
2023-03-29T14:00:55.134Z,9.56
2023-03-29T14:03:26.370Z,9.63
2023-03-29T14:06:05.284Z,9.51
2023-03-29T14:08:42.877Z,9.36
2023-03-29T14:11:29.432Z,9.36
2023-03-29T14:14:00.724Z,9.31
2023-03-29T14:16:38.305Z,9.36
2023-03-29T14:19:11.905Z,9.45
2023-03-29T14:21:40.819Z,9.49
2023-03-29T14:24:12.617Z,9.39
2023-03-29T14:26:43.740Z,9.30
2023-03-29T14:29:12.132Z,9.30
2023-03-29T14:31:40.721Z,9.30
2023-03-29T14:34:15.860Z,9.36
2023-03-29T14:36:47.309Z,9.31
2023-03-29T14:39:19.282Z,9.39
2023-03-29T14:41:51.361Z,9.39
2023-03-29T14:44:19.801Z,9.34
2023-03-29T14:46:47.180Z,9.14
2023-03-29T14:49:18.538Z,9.14
2023-03-29T14:51:46.086Z,9.04
2023-03-29T14:54:21.271Z,9.04
2023-03-29T14:56:49.347Z,8.90
2023-03-29T14:59:26.009Z,8.93
2023-03-29T15:01:53.524Z,8.93
2023-03-29T15:04:21.152Z,8.97
2023-03-29T15:06:50.750Z,8.91
2023-03-29T15:09:34.467Z,8.96
2023-03-29T15:12:02.500Z,8.99
2023-03-29T15:14:37.073Z,9.03
2023-03-29T15:17:15.246Z,8.97
2023-03-29T15:19:42.498Z,8.94
2023-03-29T15:22:11.385Z,8.94
2023-03-29T15:24:43.060Z,8.87
2023-03-29T15:27:15.175Z,8.91
2023-03-29T15:29:42.900Z,8.91
2023-03-29T15:32:19.134Z,8.91
2023-03-29T15:34:47.571Z,8.84
2023-03-29T15:37:16.362Z,8.85
2023-03-29T15:39:44.097Z,8.84
2023-03-29T15:42:11.794Z,8.87
2023-03-29T15:44:39.155Z,8.79
2023-03-29T15:47:10.502Z,8.90
2023-03-29T15:49:37.872Z,8.85
2023-03-29T15:52:05.532Z,8.90
2023-03-29T15:54:33.832Z,8.94
2023-03-29T15:57:10.256Z,8.93
2023-03-29T15:59:37.688Z,9.05
2023-03-29T16:02:05.253Z,9.14
2023-03-29T16:04:32.565Z,9.05
2023-03-29T16:07:00.670Z,9.21
2023-03-29T16:09:27.962Z,9.28
2023-03-29T16:11:55.367Z,9.20
2023-03-29T16:14:24.313Z,9.27
2023-03-29T16:16:52.555Z,9.12
2023-03-29T16:19:19.919Z,8.83
2023-03-29T16:21:48.200Z,8.81
2023-03-29T16:24:20.172Z,8.73
2023-03-29T16:26:47.902Z,8.77
2023-03-29T16:29:17.370Z,8.93
2023-03-29T16:31:45.691Z,8.69
2023-03-29T16:34:13.290Z,8.93
2023-03-29T16:36:41.039Z,9.01
2023-03-29T16:39:08.300Z,8.90
2023-03-29T16:41:35.847Z,8.83
2023-03-29T16:44:03.634Z,8.81
2023-03-29T16:46:31.558Z,8.74
2023-03-29T16:48:59.007Z,8.85
2023-03-29T16:51:26.557Z,8.90
2023-03-29T16:53:53.813Z,8.85
2023-03-29T16:56:21.174Z,8.80
2023-03-29T16:58:48.452Z,8.83
2023-03-29T17:01:16.775Z,8.74
2023-03-29T17:03:44.362Z,8.80
2023-03-29T17:06:11.795Z,8.74
2023-03-29T17:08:39.500Z,8.53
2023-03-29T17:11:07.208Z,8.66
2023-03-29T17:13:34.611Z,8.49
2023-03-29T17:16:02.138Z,8.64
2023-03-29T17:18:29.808Z,8.76
2023-03-29T17:20:57.540Z,8.76
2023-03-29T17:23:25.033Z,8.56
2023-03-29T17:25:54.445Z,8.52
2023-03-29T17:28:22.366Z,8.48
2023-03-29T17:30:49.736Z,8.48
2023-03-29T17:33:17.577Z,8.45
2023-03-29T17:35:46.076Z,8.32
2023-03-29T17:38:13.483Z,8.20
2023-03-29T17:40:41.231Z,8.41
2023-03-29T17:43:08.573Z,8.41
2023-03-29T17:45:36.064Z,8.48
2023-03-29T17:48:06.053Z,8.45
2023-03-29T17:50:34.401Z,8.49
2023-03-29T17:53:01.732Z,8.54
2023-03-29T17:58:32.517Z,8.56
2023-03-29T18:00:59.806Z,8.56
2023-03-29T18:03:27.386Z,8.46
2023-03-29T18:05:54.639Z,8.39
2023-03-29T18:08:22.060Z,8.31
2023-03-29T18:10:49.357Z,8.29
2023-03-29T18:13:16.749Z,8.22
2023-03-29T18:15:47.620Z,8.16
2023-03-29T18:18:14.952Z,8.25
2023-03-29T18:20:45.009Z,8.33
2023-03-29T18:23:12.297Z,8.33
2023-03-29T18:25:39.945Z,8.31
2023-03-29T18:28:07.452Z,8.39
2023-03-29T18:30:35.690Z,8.56
2023-03-29T18:33:03.098Z,8.53
2023-03-29T18:35:30.790Z,8.35
2023-03-29T18:37:59.073Z,8.33
2023-03-29T18:40:26.478Z,8.31
2023-03-29T18:42:53.818Z,8.21
2023-03-29T18:45:22.330Z,8.14
2023-03-29T18:47:50.668Z,8.08
2023-03-29T18:50:18.189Z,8.31
2023-03-29T18:52:45.920Z,8.38
2023-03-29T18:55:13.155Z,8.53
2023-03-29T18:57:41.068Z,8.52
2023-03-29T19:00:14.455Z,8.52
2023-03-29T19:02:42.008Z,8.35
2023-03-29T19:05:09.833Z,8.22
2023-03-29T19:07:37.337Z,8.21
2023-03-29T19:10:05.194Z,8.36
2023-03-29T19:12:35.541Z,8.28
2023-03-29T19:15:03.020Z,8.12
2023-03-29T19:17:30.966Z,8.18
2023-03-29T19:19:58.485Z,8.16
2023-03-29T19:22:26.628Z,8.22
2023-03-29T19:24:54.113Z,8.31
2023-03-29T19:27:21.480Z,8.14
2023-03-29T19:29:49.209Z,8.12
2023-03-29T19:32:16.529Z,8.25
2023-03-29T19:34:43.843Z,8.28
2023-03-29T19:37:11.130Z,8.33
2023-03-29T19:39:40.073Z,8.39
2023-03-29T19:42:07.348Z,8.35
2023-03-29T19:44:35.963Z,8.22
2023-03-29T19:47:03.478Z,8.20
2023-03-29T19:49:31.463Z,8.25
2023-03-29T19:51:59.247Z,8.01
2023-03-29T19:54:27.269Z,7.85
2023-03-29T19:56:57.414Z,7.97
2023-03-29T19:59:25.239Z,7.94
2023-03-29T20:01:52.817Z,7.91
2023-03-29T20:04:20.925Z,7.91
2023-03-29T20:06:48.574Z,7.81
2023-03-29T20:09:16.292Z,7.71
2023-03-29T20:11:49.453Z,7.74
2023-03-29T20:14:16.805Z,7.90
2023-03-29T20:16:44.852Z,7.99
2023-03-29T20:19:14.217Z,7.87
2023-03-29T20:21:41.543Z,7.94
2023-03-29T20:24:09.001Z,7.92
2023-03-29T20:26:36.503Z,7.95
2023-03-29T20:29:03.740Z,7.94
2023-03-29T20:31:31.454Z,7.91
2023-03-29T20:33:58.822Z,7.97
2023-03-29T20:36:26.694Z,8.02
2023-03-29T20:38:56.237Z,7.81
2023-03-29T20:41:23.547Z,7.87
2023-03-29T20:43:58.309Z,7.90
2023-03-29T20:46:33.524Z,7.94
2023-03-29T20:49:05.011Z,7.98
2023-03-29T20:51:32.277Z,7.90
2023-03-29T20:54:02.863Z,7.90
2023-03-29T20:56:40.166Z,7.98
2023-03-29T20:59:10.853Z,8.04
2023-03-29T21:01:40.758Z,8.01
2023-03-29T21:04:09.266Z,8.01
2023-03-29T21:06:36.869Z,7.90
2023-03-29T21:09:05.805Z,7.92
2023-03-29T21:11:33.468Z,8.02
2023-03-29T21:14:00.832Z,8.02
2023-03-29T21:16:29.160Z,7.97
2023-03-29T21:18:56.612Z,7.92
2023-03-29T21:21:23.892Z,7.92
2023-03-29T21:23:51.427Z,7.85
2023-03-29T21:26:18.729Z,7.90
2023-03-29T21:28:47.247Z,7.85
2023-03-29T21:31:14.508Z,7.80
2023-03-29T21:33:41.855Z,7.85
2023-03-29T21:36:09.106Z,7.95
2023-03-29T21:38:36.710Z,7.94
2023-03-29T21:41:04.626Z,7.97
2023-03-29T21:43:32.007Z,7.81
2023-03-29T21:45:59.352Z,7.92
2023-03-29T21:48:26.699Z,7.95
2023-03-29T21:50:53.885Z,7.81
2023-03-29T21:53:21.512Z,7.85
2023-03-29T21:55:49.265Z,7.88
2023-03-29T21:58:16.783Z,7.92
2023-03-29T22:00:44.461Z,7.87
2023-03-29T22:03:11.786Z,7.84
2023-03-29T22:05:39.134Z,7.84
2023-03-29T22:08:06.792Z,7.71
2023-03-29T22:10:34.439Z,7.74
2023-03-29T22:13:01.682Z,7.66
2023-03-29T22:15:35.531Z,7.56
2023-03-29T22:18:03.710Z,7.36
2023-03-29T22:20:31.040Z,7.22
2023-03-29T22:22:58.290Z,7.15
2023-03-29T22:25:25.500Z,7.04
2023-03-29T22:27:52.803Z,7.01
2023-03-29T22:30:20.131Z,6.92
2023-03-29T22:32:47.500Z,6.94
2023-03-29T22:35:14.843Z,6.91
2023-03-29T22:37:42.933Z,6.92
2023-03-29T22:40:11.287Z,6.94
2023-03-29T22:42:38.593Z,6.84
2023-03-29T22:45:06.698Z,6.83
2023-03-29T22:47:35.361Z,6.75
2023-03-29T22:50:02.651Z,6.80
2023-03-29T22:52:29.993Z,6.92
2023-03-29T22:54:57.408Z,6.85
2023-03-29T22:57:24.739Z,6.94
2023-03-29T22:59:52.000Z,6.84
2023-03-29T23:02:19.333Z,6.74
2023-03-29T23:04:47.580Z,6.84
2023-03-29T23:07:14.999Z,6.80
2023-03-29T23:09:42.287Z,6.74
2023-03-29T23:12:09.812Z,6.80
2023-03-29T23:14:37.616Z,6.77
2023-03-29T23:17:04.965Z,6.80
2023-03-29T23:19:32.933Z,6.78
2023-03-29T23:22:00.246Z,6.60
2023-03-29T23:24:30.483Z,6.74
2023-03-29T23:26:57.772Z,6.67
2023-03-29T23:29:26.342Z,6.63
2023-03-29T23:31:53.904Z,6.46
2023-03-29T23:34:21.146Z,6.63
2023-03-29T23:36:48.535Z,6.64
2023-03-29T23:39:16.292Z,6.73
2023-03-29T23:41:43.699Z,6.77
2023-03-29T23:44:10.966Z,6.81
2023-03-29T23:46:38.262Z,6.65
2023-03-29T23:49:05.538Z,6.68
2023-03-29T23:51:35.013Z,6.74
2023-03-29T23:54:02.353Z,6.84
2023-03-29T23:56:29.636Z,6.81
2023-03-29T23:58:56.955Z,6.53
